Time;durP1;ratioP1;P1;durP2;ratioP2;P2;SDS_P1;SDS_P2;PMS_P1;PMS_P2;Temp;Humidity;BMP_temperature;BMP_pressure;BME280_temperature;BME280_humidity;BME280_pressure;Samples;Min_cycle;Max_cycle;Signal;HPM_P1;HPM_P2
2021/03/21 00:01:29;;;;;;;34.72;25.88;;;7.20;99.90;;;;;;5070565;28;20402;-75
2021/03/21 00:03:56;;;;;;;37.78;28.13;;;7.20;99.90;;;;;;5070443;28;20127;-75
2021/03/21 00:06:22;;;;;;;37.63;25.75;;;7.10;99.90;;;;;;5071996;28;20190;-75
2021/03/21 00:08:49;;;;;;;38.28;26.35;;;7.00;99.90;;;;;;5072054;28;20104;-74
2021/03/21 00:11:15;;;;;;;38.53;27.92;;;7.10;99.90;;;;;;5072800;28;20049;-74
2021/03/21 00:13:41;;;;;;;42.58;28.27;;;7.10;99.90;;;;;;5069475;28;20045;-75
2021/03/21 00:16:08;;;;;;;39.53;28.85;;;7.00;99.90;;;;;;5065988;28;20044;-74
2021/03/21 00:18:36;;;;;;;37.35;26.77;;;7.00;99.90;;;;;;5062937;28;20049;-75
2021/03/21 00:21:05;;;;;;;40.30;28.27;;;7.00;99.90;;;;;;5062944;28;20374;-75
2021/03/21 00:23:32;;;;;;;40.85;28.45;;;7.00;99.90;;;;;;5061172;28;20048;-76
2021/03/21 00:25:59;;;;;;;37.85;27.23;;;7.00;99.90;;;;;;5061820;28;20060;-74
2021/03/21 00:28:27;;;;;;;43.28;29.50;;;7.00;99.90;;;;;;5063263;28;20128;-76
2021/03/21 00:30:56;;;;;;;41.40;30.52;;;6.90;99.90;;;;;;5063654;28;20045;-75
2021/03/21 00:33:24;;;;;;;42.25;30.48;;;7.00;99.90;;;;;;5061386;28;20491;-76
2021/03/21 00:35:52;;;;;;;42.40;29.42;;;7.00;99.90;;;;;;5062205;28;20068;-76
2021/03/21 00:38:22;;;;;;;40.53;28.20;;;7.00;99.90;;;;;;5061348;28;20128;-76
2021/03/21 00:40:49;;;;;;;40.22;27.40;;;6.90;99.90;;;;;;5062999;28;20068;-76
2021/03/21 00:43:17;;;;;;;43.17;27.77;;;6.90;99.90;;;;;;5063744;28;20420;-75
2021/03/21 00:45:43;;;;;;;39.72;26.40;;;6.90;99.90;;;;;;5061695;28;20047;-75
2021/03/21 00:48:12;;;;;;;40.58;27.85;;;6.80;99.90;;;;;;5062721;28;20159;-76
2021/03/21 00:50:39;;;;;;;42.65;28.73;;;6.80;99.90;;;;;;5070914;28;20048;-76
2021/03/21 00:53:05;;;;;;;42.38;27.33;;;6.80;99.90;;;;;;5071089;28;20487;-75
2021/03/21 00:55:32;;;;;;;41.60;28.27;;;6.80;99.90;;;;;;5070316;28;20496;-74
2021/03/21 00:57:59;;;;;;;42.47;28.23;;;6.80;99.90;;;;;;5069684;28;20044;-75
2021/03/21 01:00:28;;;;;;;45.40;27.73;;;6.80;99.90;;;;;;5070469;28;20135;-75
2021/03/21 01:02:55;;;;;;;46.08;29.10;;;6.80;99.90;;;;;;5070726;28;20086;-74
2021/03/21 01:05:25;;;;;;;42.05;27.73;;;6.80;99.90;;;;;;5070469;28;20079;-76
2021/03/21 01:07:53;;;;;;;45.17;29.45;;;6.80;99.90;;;;;;5071478;28;20049;-75
2021/03/21 01:10:20;;;;;;;43.90;28.83;;;6.80;99.90;;;;;;5072594;28;20056;-74
2021/03/21 01:12:50;;;;;;;42.72;29.50;;;6.80;99.90;;;;;;5072039;28;20055;-73
2021/03/21 01:15:17;;;;;;;40.95;27.33;;;6.80;99.90;;;;;;5072045;28;20197;-75
2021/03/21 01:17:44;;;;;;;41.25;26.75;;;6.80;99.90;;;;;;5071520;28;20135;-76
2021/03/21 01:20:11;;;;;;;36.97;25.15;;;6.70;99.90;;;;;;5072191;28;20135;-74
2021/03/21 01:22:38;;;;;;;36.40;23.98;;;6.70;99.90;;;;;;5071920;28;20127;-74
2021/03/21 01:25:05;;;;;;;34.53;22.00;;;6.70;99.90;;;;;;5071660;28;20099;-77
2021/03/21 01:27:31;;;;;;;33.58;20.52;;;6.70;99.90;;;;;;5071380;28;20083;-75
2021/03/21 01:29:58;;;;;;;34.92;20.75;;;6.60;99.90;;;;;;5072369;28;20112;-75
2021/03/21 01:32:25;;;;;;;31.67;20.60;;;6.50;99.90;;;;;;5072547;28;20174;-75
2021/03/21 01:34:51;;;;;;;31.27;21.35;;;6.40;99.90;;;;;;5072608;28;20549;-75
2021/03/21 01:37:17;;;;;;;33.15;22.20;;;6.40;99.90;;;;;;5072224;28;20502;-75
2021/03/21 01:39:44;;;;;;;33.10;21.52;;;6.40;99.90;;;;;;5072295;28;20131;-75
2021/03/21 01:42:14;;;;;;;34.60;23.52;;;6.40;99.90;;;;;;5072381;28;20132;-75
2021/03/21 01:44:40;;;;;;;32.38;21.25;;;6.40;99.90;;;;;;5071887;28;20080;-76
2021/03/21 01:47:33;;;;;;;33.97;22.05;;;6.40;99.90;;;;;;5071474;28;20044;-75
2021/03/21 01:50:05;;;;;;;35.30;22.48;;;6.40;99.90;;;;;;5071602;28;20473;-75
2021/03/21 01:52:35;;;;;;;32.45;21.25;;;6.40;99.90;;;;;;5071517;28;20136;-76
2021/03/21 01:55:04;;;;;;;29.85;20.35;;;6.50;99.90;;;;;;5071641;28;20075;-74
2021/03/21 01:57:31;;;;;;;31.65;20.65;;;6.50;99.90;;;;;;5071229;28;20045;-75
2021/03/21 01:59:57;;;;;;;31.42;21.75;;;6.40;99.90;;;;;;5071874;28;20139;-74
2021/03/21 02:02:25;;;;;;;33.90;22.05;;;6.40;99.90;;;;;;5071678;28;20049;-76
2021/03/21 02:04:51;;;;;;;34.97;21.75;;;6.30;99.90;;;;;;5071416;28;20514;-75
2021/03/21 02:07:36;;;;;;;36.13;22.27;;;6.30;99.90;;;;;;5071145;28;20139;-75
2021/03/21 02:10:11;;;;;;;36.03;23.27;;;6.30;99.90;;;;;;5074877;28;20048;-75
2021/03/21 02:12:49;;;;;;;36.28;22.85;;;6.20;99.90;;;;;;5075543;28;20477;-75
2021/03/21 02:15:22;;;;;;;35.70;23.88;;;6.10;99.90;;;;;;5076080;28;20083;-76
2021/03/21 02:17:59;;;;;;;35.85;22.60;;;6.20;99.90;;;;;;5075977;28;20131;-75
2021/03/21 02:20:46;;;;;;;36.63;24.00;;;6.20;99.90;;;;;;5076595;28;20052;-74
2021/03/21 02:23:17;;;;;;;35.40;22.17;;;6.10;99.90;;;;;;5075647;28;20064;-75
2021/03/21 02:26:16;;;;;;;37.67;23.75;;;6.10;99.90;;;;;;5074959;28;20131;-75
2021/03/21 02:29:04;;;;;;;40.53;25.55;;;6.10;99.90;;;;;;5075311;28;20052;-74
2021/03/21 02:31:36;;;;;;;37.67;25.50;;;6.10;99.90;;;;;;5057951;28;20098;-75
2021/03/21 02:34:08;;;;;;;39.55;24.00;;;6.00;99.90;;;;;;5075019;28;20045;-74
2021/03/21 02:36:39;;;;;;;39.80;25.00;;;6.00;99.90;;;;;;5074835;28;20477;-74
2021/03/21 02:39:13;;;;;;;36.10;23.42;;;6.00;99.90;;;;;;5074720;28;20445;-75
2021/03/21 02:41:45;;;;;;;36.20;24.45;;;6.00;99.90;;;;;;5074814;28;20088;-74
2021/03/21 02:44:14;;;;;;;32.85;21.48;;;6.00;99.90;;;;;;5074705;28;20096;-74
2021/03/21 02:46:45;;;;;;;37.30;21.40;;;5.90;99.90;;;;;;5074432;28;20084;-75
2021/03/21 02:49:18;;;;;;;32.17;20.60;;;5.90;99.90;;;;;;5074818;28;20375;-74
2021/03/21 02:51:49;;;;;;;32.53;21.45;;;5.90;99.90;;;;;;5074898;28;20135;-74
2021/03/21 02:54:23;;;;;;;33.10;20.85;;;5.80;99.90;;;;;;5074710;28;20171;-73
2021/03/21 02:56:56;;;;;;;31.88;19.88;;;5.80;99.90;;;;;;5074761;28;20546;-74
2021/03/21 02:59:26;;;;;;;34.58;21.35;;;5.80;99.90;;;;;;5074932;28;20056;-74
2021/03/21 03:01:57;;;;;;;35.72;20.90;;;5.80;99.90;;;;;;5074848;28;20460;-73
2021/03/21 03:04:30;;;;;;;39.88;22.13;;;5.80;99.90;;;;;;5074682;28;20127;-73
2021/03/21 03:07:00;;;;;;;37.10;21.85;;;5.80;99.90;;;;;;5074043;28;20135;-74
2021/03/21 03:09:32;;;;;;;34.15;21.65;;;5.90;99.90;;;;;;5074481;28;20582;-73
2021/03/21 03:12:06;;;;;;;28.10;17.45;;;5.90;99.90;;;;;;5074837;28;20044;-72
2021/03/21 03:14:36;;;;;;;35.08;19.90;;;5.90;99.90;;;;;;5074305;28;20083;-75
2021/03/21 03:17:08;;;;;;;30.67;19.35;;;5.90;99.90;;;;;;5073925;28;20084;-73
2021/03/21 03:19:42;;;;;;;33.00;20.40;;;5.90;99.90;;;;;;5109830;22;20075;-76
2021/03/21 03:22:16;;;;;;;35.95;21.30;;;5.90;99.90;;;;;;5094204;28;20051;-76
2021/03/21 03:24:53;;;;;;;37.97;21.60;;;6.00;99.90;;;;;;5094197;28;20067;-76
2021/03/21 03:27:28;;;;;;;34.85;22.40;;;6.00;99.90;;;;;;5094213;28;20127;-76
2021/03/21 03:29:57;;;;;;;32.50;20.75;;;6.00;99.90;;;;;;5076942;28;20094;-77
2021/03/21 03:32:28;;;;;;;33.53;21.23;;;6.00;99.90;;;;;;5073936;28;20048;-76
2021/03/21 03:34:57;;;;;;;35.97;22.23;;;5.90;99.90;;;;;;5073766;28;20071;-78
2021/03/21 03:37:24;;;;;;;36.92;21.85;;;6.00;99.90;;;;;;5073846;28;20505;-77
2021/03/21 03:39:50;;;;;;;34.85;21.52;;;6.00;99.90;;;;;;5073548;28;20502;-78
2021/03/21 03:42:27;;;;;;;34.03;23.25;;;6.00;99.90;;;;;;5073757;28;20128;-77
2021/03/21 03:45:04;;;;;;;34.00;21.08;;;6.00;99.90;;;;;;5073614;28;20131;-78
2021/03/21 03:47:40;;;;;;;36.00;22.63;;;6.00;99.90;;;;;;5073687;28;20139;-77
2021/03/21 03:50:11;;;;;;;34.90;21.85;;;6.00;99.90;;;;;;5074210;28;20048;-78
2021/03/21 03:52:51;;;;;;;35.80;22.73;;;5.90;99.90;;;;;;5074150;28;20151;-77
2021/03/21 03:55:27;;;;;;;34.03;21.67;;;5.90;99.90;;;;;;5073726;28;20048;-77
2021/03/21 03:58:01;;;;;;;36.42;22.02;;;6.00;99.90;;;;;;5073542;28;20139;-78
2021/03/21 04:00:34;;;;;;;36.25;20.70;;;6.00;99.90;;;;;;5073771;28;20490;-78
2021/03/21 04:03:11;;;;;;;33.80;21.40;;;6.10;99.90;;;;;;5073761;28;20537;-76
2021/03/21 04:05:43;;;;;;;36.03;21.67;;;6.10;99.90;;;;;;5073442;28;20092;-77
2021/03/21 04:08:20;;;;;;;35.17;20.95;;;6.10;99.90;;;;;;5073667;28;20148;-78
2021/03/21 04:10:50;;;;;;;32.53;19.90;;;6.20;99.90;;;;;;5073633;28;20056;-77
2021/03/21 04:13:22;;;;;;;35.47;20.95;;;6.20;99.90;;;;;;5073386;28;20136;-75
2021/03/21 04:15:51;;;;;;;35.50;20.60;;;6.20;99.90;;;;;;5073263;28;20051;-77
2021/03/21 04:18:25;;;;;;;33.70;21.25;;;6.20;99.90;;;;;;5072796;28;20139;-77
2021/03/21 04:20:57;;;;;;;33.80;20.98;;;6.20;99.90;;;;;;5073194;28;20479;-75
2021/03/21 04:23:28;;;;;;;37.10;21.75;;;6.20;99.90;;;;;;5073305;28;20131;-76
2021/03/21 04:25:58;;;;;;;31.75;19.85;;;6.30;99.90;;;;;;5073116;28;20133;-76
2021/03/21 04:28:32;;;;;;;35.00;21.13;;;6.20;99.90;;;;;;5072514;28;20183;-77
2021/03/21 04:31:02;;;;;;;36.03;21.20;;;6.20;99.90;;;;;;5072260;28;20422;-77
2021/03/21 04:33:34;;;;;;;36.72;20.95;;;6.20;99.90;;;;;;5073103;28;20143;-77
2021/03/21 04:36:04;;;;;;;34.22;20.75;;;6.30;99.90;;;;;;5073496;28;20455;-76
2021/03/21 04:38:34;;;;;;;36.22;19.80;;;6.30;99.90;;;;;;5072897;28;20151;-77
2021/03/21 04:41:02;;;;;;;33.75;20.58;;;6.30;99.90;;;;;;5073410;28;20135;-76
2021/03/21 04:43:33;;;;;;;32.97;19.63;;;6.20;99.90;;;;;;5073860;28;20051;-76
2021/03/21 04:46:05;;;;;;;37.47;20.05;;;6.20;99.90;;;;;;5073426;28;20079;-77
2021/03/21 04:48:32;;;;;;;33.00;18.50;;;6.20;99.90;;;;;;5072702;28;20565;-77
2021/03/21 04:51:02;;;;;;;35.40;18.02;;;6.20;99.90;;;;;;5072929;28;20136;-76
2021/03/21 04:53:38;;;;;;;34.78;18.40;;;6.20;99.90;;;;;;5073205;28;20132;-75
2021/03/21 04:56:19;;;;;;;32.60;19.00;;;6.10;99.90;;;;;;5074021;28;20430;-76
2021/03/21 04:58:49;;;;;;;31.58;18.13;;;6.00;99.90;;;;;;5072824;28;20080;-76
2021/03/21 05:01:18;;;;;;;33.72;18.20;;;6.10;99.90;;;;;;5072799;28;20489;-77
2021/03/21 05:03:52;;;;;;;33.75;19.30;;;6.10;99.90;;;;;;5072671;28;20088;-77
2021/03/21 05:06:32;;;;;;;34.00;20.13;;;6.10;99.90;;;;;;5072770;28;20056;-77
2021/03/21 05:09:03;;;;;;;35.90;20.48;;;6.10;99.90;;;;;;5072433;28;20054;-77
2021/03/21 05:11:38;;;;;;;36.35;20.58;;;6.10;99.90;;;;;;5072630;28;20210;-77
2021/03/21 05:14:12;;;;;;;37.20;19.40;;;6.10;99.90;;;;;;5072467;28;20045;-76
2021/03/21 05:16:51;;;;;;;42.65;23.38;;;6.00;99.90;;;;;;5072030;28;20442;-78
2021/03/21 05:19:24;;;;;;;44.20;23.13;;;6.00;99.90;;;;;;5071982;28;20562;-78
2021/03/21 05:21:55;;;;;;;41.05;22.60;;;5.90;99.90;;;;;;5072180;28;20503;-76
2021/03/21 05:24:27;;;;;;;43.00;23.20;;;6.00;99.90;;;;;;5072085;28;20095;-78
2021/03/21 05:27:00;;;;;;;46.28;24.00;;;6.00;99.90;;;;;;5071888;28;20414;-78
2021/03/21 05:29:38;;;;;;;49.53;24.83;;;6.00;99.90;;;;;;5072027;28;20130;-77
2021/03/21 05:32:07;;;;;;;46.75;24.05;;;6.00;99.90;;;;;;5072275;28;20139;-77
2021/03/21 05:34:34;;;;;;;42.35;22.38;;;6.10;99.90;;;;;;5072040;28;20127;-77
2021/03/21 05:37:14;;;;;;;46.65;24.33;;;6.10;99.90;;;;;;5071783;28;20048;-77
2021/03/21 05:39:49;;;;;;;50.92;24.25;;;6.10;99.90;;;;;;5072050;28;20140;-77
2021/03/21 05:43:11;;;;;;;47.40;24.45;;;6.10;99.90;;;;;;5072134;28;20510;-77
2021/03/21 05:46:29;;;;;;;50.92;24.45;;;6.20;99.90;;;;;;5072342;28;20040;-77
2021/03/21 05:49:39;;;;;;;54.95;24.95;;;6.10;99.90;;;;;;5072450;28;20053;-77
2021/03/21 05:52:48;;;;;;;52.25;24.65;;;6.10;99.90;;;;;;5072176;28;20137;-77
2021/03/21 05:55:37;;;;;;;51.58;24.50;;;6.10;99.90;;;;;;5072438;28;20076;-76
2021/03/21 05:58:50;;;;;;;55.13;26.33;;;6.10;99.90;;;;;;5072049;28;20052;-76
2021/03/21 06:01:41;;;;;;;58.60;27.73;;;6.10;99.90;;;;;;5073035;28;20136;-77
2021/03/21 06:04:47;;;;;;;58.60;27.13;;;6.10;99.90;;;;;;5072246;28;20041;-76
2021/03/21 06:07:37;;;;;;;57.70;27.23;;;6.10;99.90;;;;;;5072029;28;20135;-77
2021/03/21 06:10:30;;;;;;;60.47;27.90;;;6.10;99.90;;;;;;5072374;28;20103;-75
2021/03/21 06:13:12;;;;;;;48.20;21.83;;;6.10;99.90;;;;;;5072170;28;20048;-76
2021/03/21 06:16:01;;;;;;;60.47;27.20;;;6.20;99.90;;;;;;5072633;28;20044;-76
2021/03/21 06:18:53;;;;;;;58.30;26.92;;;6.10;99.90;;;;;;5071833;28;20061;-76
2021/03/21 06:21:53;;;;;;;58.17;25.95;;;6.20;99.90;;;;;;5071845;28;20135;-77
2021/03/21 06:24:39;;;;;;;62.35;29.75;;;6.20;99.90;;;;;;5038450;28;20040;-76
2021/03/21 06:27:21;;;;;;;62.35;29.25;;;6.20;99.90;;;;;;5071480;28;20052;-75
2021/03/21 06:30:24;;;;;;;61.72;29.42;;;6.30;99.90;;;;;;5071553;28;20139;-74
2021/03/21 06:33:10;;;;;;;62.87;29.30;;;6.30;99.90;;;;;;5072631;28;20048;-76
2021/03/21 06:36:03;;;;;;;58.10;27.15;;;6.40;99.90;;;;;;5071635;28;20101;-75
2021/03/21 06:38:56;;;;;;;55.30;27.45;;;6.40;99.90;;;;;;5068731;28;20163;-75
2021/03/21 06:41:50;;;;;;;56.83;26.55;;;6.40;99.90;;;;;;5071360;28;20080;-75
2021/03/21 06:44:26;;;;;;;;;;;6.40;99.90;;;;;;5071560;28;20127;-75
2021/03/21 06:47:09;;;;;;;51.42;26.30;;;6.40;99.90;;;;;;5071763;28;19939;-77
2021/03/21 06:50:03;;;;;;;53.55;27.45;;;6.40;99.90;;;;;;5072168;28;20493;-76
2021/03/21 06:52:42;;;;;;;55.13;27.35;;;6.40;99.90;;;;;;5071985;28;20102;-77
2021/03/21 06:55:12;;;;;;;57.80;27.40;;;6.50;99.90;;;;;;5075809;28;20131;-75
2021/03/21 06:58:24;;;;;;;55.88;27.88;;;6.50;99.90;;;;;;5076851;28;20456;-76
2021/03/21 07:01:18;;;;;;;62.50;29.58;;;6.50;99.90;;;;;;5076243;28;20123;-76
2021/03/21 07:04:22;;;;;;;61.40;29.35;;;6.50;99.90;;;;;;5075735;28;20411;-76
2021/03/21 07:07:22;;;;;;;56.17;28.92;;;6.50;99.90;;;;;;5075207;28;20044;-76
2021/03/21 07:10:35;;;;;;;61.17;30.67;;;6.50;99.90;;;;;;5031094;28;20144;-77
2021/03/21 07:13:31;;;;;;;57.22;29.60;;;6.60;99.90;;;;;;5075134;28;20135;-77
2021/03/21 07:16:13;;;;;;;51.33;27.45;;;6.60;99.90;;;;;;5074764;28;20049;-76
2021/03/21 07:19:18;;;;;;;46.55;24.20;;;6.80;99.90;;;;;;5074970;28;20048;-77
2021/03/21 07:22:25;;;;;;;42.45;24.25;;;6.90;99.90;;;;;;5074460;28;20135;-77
2021/03/21 07:25:32;;;;;;;40.75;23.45;;;7.00;99.90;;;;;;5027386;28;20053;-77
2021/03/21 07:28:15;;;;;;;38.33;23.73;;;7.20;99.90;;;;;;5074241;28;20112;-77
2021/03/21 07:30:50;;;;;;;;;;;7.30;99.90;;;;;;5075203;28;20475;-77
2021/03/21 07:33:43;;;;;;;33.97;19.95;;;7.50;99.90;;;;;;5074211;28;19942;-75
2021/03/21 07:36:25;;;;;;;30.67;19.75;;;7.50;99.90;;;;;;5074019;28;20045;-75
2021/03/21 07:39:08;;;;;;;30.98;20.90;;;7.60;99.90;;;;;;5074549;28;20056;-76
2021/03/21 07:41:59;;;;;;;32.25;19.67;;;7.60;99.90;;;;;;5074821;28;20139;-75
2021/03/21 07:44:46;;;;;;;30.75;19.58;;;7.70;99.90;;;;;;5074655;28;20083;-75
2021/03/21 07:47:30;;;;;;;29.38;18.08;;;7.70;99.90;;;;;;5075685;28;20078;-76
2021/03/21 07:50:25;;;;;;;30.08;17.48;;;7.80;99.90;;;;;;5075462;28;20048;-75
2021/03/21 07:53:04;;;;;;;26.98;18.02;;;7.80;99.90;;;;;;5075406;28;20076;-75
2021/03/21 07:55:39;;;;;;;27.13;16.20;;;7.80;99.90;;;;;;5075208;28;20469;-76
2021/03/21 07:58:18;;;;;;;25.13;15.43;;;7.80;99.90;;;;;;5074918;28;20060;-77
2021/03/21 08:00:45;;;;;;;24.90;16.05;;;7.80;99.90;;;;;;5074690;28;20062;-76
2021/03/21 08:03:30;;;;;;;25.98;15.93;;;7.80;99.90;;;;;;5074606;28;20060;-75
2021/03/21 08:06:01;;;;;;;25.80;16.10;;;7.70;99.90;;;;;;5073021;28;20044;-77
2021/03/21 08:08:31;;;;;;;23.58;15.05;;;7.70;99.90;;;;;;5074142;28;20565;-76
2021/03/21 08:11:01;;;;;;;25.02;15.95;;;7.80;99.90;;;;;;5074564;28;20048;-76
2021/03/21 08:13:40;;;;;;;24.95;16.58;;;7.80;99.90;;;;;;5074768;28;20075;-76
2021/03/21 08:16:11;;;;;;;18.92;13.85;;;7.90;99.90;;;;;;5074484;28;20170;-74
2021/03/21 08:18:38;;;;;;;22.88;15.43;;;8.00;99.90;;;;;;5075157;28;20131;-75
2021/03/21 08:21:12;;;;;;;24.85;15.60;;;8.00;99.90;;;;;;5074570;28;20056;-74
2021/03/21 08:23:41;;;;;;;21.90;13.85;;;8.10;99.90;;;;;;5074290;28;20057;-75
2021/03/21 08:26:09;;;;;;;18.75;12.55;;;8.30;99.90;;;;;;5074115;28;20083;-73
2021/03/21 08:29:02;;;;;;;18.35;11.60;;;8.30;99.90;;;;;;5073877;28;20468;-76
2021/03/21 08:31:30;;;;;;;;;;;8.20;99.90;;;;;;5074471;28;20090;-76
2021/03/21 08:34:38;;;;;;;18.50;11.13;;;8.20;99.90;;;;;;5073898;28;19952;-76
2021/03/21 08:37:22;;;;;;;17.95;11.18;;;8.20;99.90;;;;;;5073355;28;20062;-77
2021/03/21 08:39:52;;;;;;;17.30;10.25;;;8.20;99.90;;;;;;5073129;28;20059;-76
2021/03/21 08:42:38;;;;;;;14.55;9.60;;;8.20;99.90;;;;;;5069281;28;20048;-76
2021/03/21 08:45:22;;;;;;;14.30;8.88;;;8.10;99.90;;;;;;5072650;28;20075;-76
2021/03/21 08:48:13;;;;;;;14.07;8.80;;;8.00;99.90;;;;;;5070798;28;20131;-76
2021/03/21 08:50:42;;;;;;;16.38;9.63;;;7.80;99.90;;;;;;5075683;28;20539;-76
2021/03/21 08:53:25;;;;;;;17.08;10.25;;;7.70;99.90;;;;;;5074712;28;20084;-76
2021/03/21 08:56:13;;;;;;;16.40;9.75;;;7.70;99.90;;;;;;5073713;28;20133;-76
2021/03/21 08:58:40;;;;;;;17.25;9.70;;;7.70;99.90;;;;;;5073261;28;20049;-75
2021/03/21 09:01:16;;;;;;;16.10;9.45;;;7.80;99.90;;;;;;5076768;28;20083;-76
2021/03/21 09:03:50;;;;;;;13.48;9.20;;;7.90;99.90;;;;;;5076340;28;20072;-77
2021/03/21 09:06:38;;;;;;;9.68;6.65;;;8.10;99.90;;;;;;5077504;28;20105;-77
2021/03/21 09:09:25;;;;;;;11.23;6.95;;;8.20;99.90;;;;;;5077690;28;20052;-78
2021/03/21 09:11:56;;;;;;;9.45;6.18;;;8.30;99.90;;;;;;5076732;28;20072;-77
2021/03/21 09:14:30;;;;;;;9.60;5.03;;;8.30;99.90;;;;;;5077992;28;20053;-77
2021/03/21 09:17:02;;;;;;;7.13;4.65;;;8.40;99.90;;;;;;5077292;28;20395;-77
2021/03/21 09:19:30;;;;;;;;;;;8.50;99.90;;;;;;5092348;22;20050;-86
2021/03/21 09:21:57;;;;;;;6.03;4.00;;;8.60;99.90;;;;;;5079050;28;20288;-87
2021/03/21 09:24:28;;;;;;;6.50;3.70;;;8.60;99.90;;;;;;5061875;28;20049;-85
2021/03/21 09:27:15;;;;;;;9.65;4.40;;;8.60;99.90;;;;;;5062082;28;20060;-85
2021/03/21 09:29:42;;;;;;;7.60;4.20;;;8.70;99.90;;;;;;5061634;28;20475;-85
2021/03/21 09:32:22;;;;;;;6.57;4.80;;;8.70;99.90;;;;;;5061434;28;20053;-85
2021/03/21 09:35:29;;;;;;;11.90;5.18;;;8.60;99.90;;;;;;5063743;28;20045;-83
2021/03/21 09:37:58;;;;;;;9.85;4.10;;;8.50;99.90;;;;;;5021389;28;20074;-86
2021/03/21 09:40:29;;;;;;;9.23;4.90;;;8.40;99.90;;;;;;5054063;28;20076;-85
2021/03/21 09:42:56;;;;;;;6.45;4.30;;;8.30;99.90;;;;;;5062646;28;20083;-85
2021/03/21 09:45:22;;;;;;;7.28;4.50;;;8.30;99.90;;;;;;5062384;28;20049;-85
2021/03/21 09:47:54;;;;;;;5.72;4.43;;;8.30;99.90;;;;;;5062710;28;20049;-85
2021/03/21 09:50:44;;;;;;;8.23;4.07;;;8.30;99.90;;;;;;5062973;28;20064;-85
2021/03/21 09:53:46;;;;;;;5.40;3.60;;;8.20;99.90;;;;;;5063065;28;20049;-84
2021/03/21 09:56:22;;;;;;;9.95;4.80;;;8.10;99.90;;;;;;5062423;28;20531;-83
2021/03/21 09:58:52;;;;;;;11.93;4.28;;;8.00;99.90;;;;;;5063795;28;20076;-87
2021/03/21 10:01:30;;;;;;;10.35;3.55;;;7.70;99.90;;;;;;5062874;28;20079;-85
2021/03/21 10:04:05;;;;;;;13.63;4.15;;;7.50;99.90;;;;;;5063994;28;20077;-84
2021/03/21 10:06:45;;;;;;;10.13;3.80;;;7.40;99.90;;;;;;5064438;28;20468;-85
2021/03/21 10:09:16;;;;;;;9.77;3.70;;;7.50;99.90;;;;;;5064866;28;20049;-85
2021/03/21 10:11:47;;;;;;;12.35;4.03;;;7.60;99.90;;;;;;5065138;28;20049;-84
2021/03/21 10:14:44;;;;;;;12.02;3.60;;;7.90;99.90;;;;;;5064195;28;20136;-84
2021/03/21 10:17:39;;;;;;;10.25;3.40;;;8.10;99.90;;;;;;5063908;28;20167;-85
2021/03/21 10:20:07;;;;;;;12.35;4.55;;;8.40;99.90;;;;;;5063507;28;20063;-84
2021/03/21 10:22:58;;;;;;;10.60;3.70;;;8.60;99.90;;;;;;5063552;28;20053;-85
2021/03/21 10:26:15;;;;;;;13.65;3.50;;;8.70;99.90;;;;;;5062052;28;20053;-86
2021/03/21 10:28:46;;;;;;;8.82;3.47;;;8.70;99.90;;;;;;5021882;28;20042;-84
2021/03/21 10:31:38;;;;;;;15.43;3.85;;;8.80;99.90;;;;;;5024237;28;20109;-85
2021/03/21 10:34:39;;;;;;;12.77;3.83;;;8.60;99.90;;;;;;5052381;28;20052;-88
2021/03/21 10:37:11;;;;;;;15.23;3.78;;;8.60;99.90;;;;;;5048368;28;20049;-84
2021/03/21 10:40:02;;;;;;;14.07;5.40;;;8.60;99.90;;;;;;5049883;28;20049;-86
2021/03/21 10:42:47;;;;;;;8.00;3.30;;;8.70;99.90;;;;;;5065937;28;20045;-87
2021/03/21 10:45:47;;;;;;;10.50;3.75;;;8.70;99.90;;;;;;5049596;28;20068;-87
2021/03/21 10:48:47;;;;;;;11.48;4.10;;;8.60;99.90;;;;;;5066113;28;20495;-86
2021/03/21 10:51:14;;;;;;;14.55;3.72;;;8.60;99.90;;;;;;5056581;28;20130;-88
2021/03/21 10:54:01;;;;;;;13.57;5.10;;;8.50;99.90;;;;;;5056998;28;20046;-86
2021/03/21 10:56:30;;;;;;;12.15;4.25;;;8.50;99.90;;;;;;5057761;28;20045;-87
2021/03/21 10:59:28;;;;;;;15.32;3.85;;;8.50;99.90;;;;;;5048898;28;20053;-86
2021/03/21 11:02:22;;;;;;;10.75;3.55;;;8.50;99.90;;;;;;5046296;28;20049;-86
2021/03/21 11:05:10;;;;;;;11.27;3.83;;;8.40;99.90;;;;;;5046431;28;20053;-86
2021/03/21 11:07:38;;;;;;;10.02;4.20;;;8.40;99.90;;;;;;5046090;28;20061;-87
2021/03/21 11:10:08;;;;;;;19.98;4.28;;;8.40;99.90;;;;;;5047433;28;20068;-87
2021/03/21 11:12:36;;;;;;;12.77;3.97;;;8.50;99.90;;;;;;5046223;28;20107;-85
2021/03/21 11:15:28;;;;;;;15.70;3.75;;;8.60;99.90;;;;;;5047428;28;20056;-86
2021/03/21 11:18:01;;;;;;;11.43;4.45;;;8.60;99.90;;;;;;5046812;28;20059;-86
2021/03/21 11:20:30;;;;;;;16.20;4.63;;;8.70;99.90;;;;;;5045559;28;20056;-87
2021/03/21 11:23:05;;;;;;;16.83;4.90;;;8.70;99.90;;;;;;5045910;28;20053;-86
2021/03/21 11:25:35;;;;;;;14.25;3.97;;;8.70;99.90;;;;;;5044919;28;20224;-86
2021/03/21 11:28:02;;;;;;;17.58;4.95;;;8.70;99.90;;;;;;5047262;28;20072;-85
2021/03/21 11:30:29;;;;;;;21.58;5.03;;;8.50;99.90;;;;;;5047556;28;20060;-86
2021/03/21 11:33:14;;;;;;;17.88;4.43;;;8.40;99.90;;;;;;5047450;28;20087;-86
2021/03/21 11:35:43;;;;;;;17.38;4.85;;;8.40;99.90;;;;;;5046970;28;20061;-85
2021/03/21 11:38:30;;;;;;;20.48;4.85;;;8.30;99.90;;;;;;5048282;28;20053;-86
2021/03/21 11:41:00;;;;;;;18.48;4.82;;;8.30;99.90;;;;;;5047631;28;20060;-85
2021/03/21 11:43:29;;;;;;;15.95;4.63;;;8.40;99.90;;;;;;5045961;28;20060;-85
2021/03/21 11:46:09;;;;;;;22.20;4.90;;;8.60;99.90;;;;;;5065363;28;20049;-86
2021/03/21 11:48:39;;;;;;;18.30;4.32;;;8.80;99.90;;;;;;5050573;28;20060;-87
2021/03/21 11:51:07;;;;;;;18.17;4.90;;;8.90;99.90;;;;;;5042505;28;20507;-87
2021/03/21 11:53:37;;;;;;;23.42;6.45;;;9.00;99.90;;;;;;5047546;28;20049;-86
2021/03/21 11:56:10;;;;;;;20.55;5.03;;;9.10;99.90;;;;;;5051216;28;20077;-87
2021/03/21 11:58:40;;;;;;;19.63;4.72;;;9.10;99.90;;;;;;5049168;28;20053;-88
2021/03/21 12:01:15;;;;;;;20.90;5.63;;;9.20;99.90;;;;;;5048362;28;20455;-87
2021/03/21 12:03:51;;;;;;;17.35;4.97;;;9.30;99.90;;;;;;5042869;28;20092;-87
2021/03/21 12:06:33;;;;;;;19.65;6.63;;;9.20;99.90;;;;;;5050457;28;20044;-87
2021/03/21 12:09:19;;;;;;;20.92;5.68;;;9.20;99.90;;;;;;5050510;28;20064;-87
2021/03/21 12:11:48;;;;;;;15.00;4.53;;;9.20;99.90;;;;;;5043102;28;20423;-86
2021/03/21 12:14:57;;;;;;;21.83;4.43;;;9.20;99.90;;;;;;5042588;28;20136;-86
2021/03/21 12:17:39;;;;;;;27.52;5.85;;;9.20;99.90;;;;;;5001705;28;20559;-87
2021/03/21 12:20:44;;;;;;;21.92;5.43;;;9.10;99.90;;;;;;5059341;28;20071;-86
2021/03/21 12:23:38;;;;;;;19.13;5.55;;;9.00;99.90;;;;;;5016817;28;20069;-86
2021/03/21 12:26:17;;;;;;;25.70;5.85;;;9.20;99.90;;;;;;5010333;28;20053;-85
2021/03/21 12:28:50;;;;;;;25.25;5.88;;;9.30;99.90;;;;;;5054545;28;20076;-85
2021/03/21 12:31:23;;;;;;;24.08;5.75;;;9.20;99.90;;;;;;5064785;28;20069;-86
2021/03/21 12:33:50;;;;;;;20.73;4.97;;;9.10;99.90;;;;;;5066492;28;20065;-86
2021/03/21 12:36:22;;;;;;;23.60;5.50;;;9.10;99.90;;;;;;5065648;28;20422;-86
2021/03/21 12:38:55;;;;;;;26.30;6.10;;;9.00;99.90;;;;;;5065499;28;20484;-86
2021/03/21 12:41:36;;;;;;;;;;;9.00;99.90;;;;;;5067711;28;20048;-85
2021/03/21 12:44:24;;;;;;;24.33;5.32;;;9.00;99.90;;;;;;5066697;28;19936;-85
2021/03/21 12:46:57;;;;;;;27.10;6.03;;;9.00;99.90;;;;;;5064757;28;20561;-85
2021/03/21 12:49:47;;;;;;;27.75;6.65;;;9.10;99.90;;;;;;5064694;28;20053;-86
2021/03/21 12:52:18;;;;;;;21.63;6.65;;;9.10;99.90;;;;;;5062951;28;20056;-85
2021/03/21 12:54:45;;;;;;;23.92;6.53;;;9.00;99.90;;;;;;5065365;28;20114;-86
2021/03/21 12:57:13;;;;;;;21.48;5.97;;;9.10;99.90;;;;;;5064932;28;20049;-85
2021/03/21 12:59:42;;;;;;;22.00;7.10;;;9.00;99.90;;;;;;5065962;28;20072;-86
2021/03/21 13:02:24;;;;;;;24.85;6.07;;;9.10;99.90;;;;;;5064330;28;20045;-86
2021/03/21 13:04:52;;;;;;;24.55;6.55;;;9.10;99.90;;;;;;5064274;28;20049;-87
2021/03/21 13:07:21;;;;;;;23.73;6.50;;;9.10;99.90;;;;;;5064354;28;20064;-86
2021/03/21 13:10:05;;;;;;;27.20;6.82;;;9.20;99.90;;;;;;5064858;28;20068;-88
2021/03/21 13:12:35;;;;;;;18.23;5.60;;;9.30;99.90;;;;;;5066067;28;20084;-86
2021/03/21 13:15:02;;;;;;;21.80;5.72;;;9.30;99.90;;;;;;5066429;28;20577;-86
2021/03/21 13:17:31;;;;;;;21.52;6.13;;;9.40;99.90;;;;;;5065214;28;20076;-86
2021/03/21 13:19:58;;;;;;;24.15;6.72;;;9.40;99.90;;;;;;5067520;28;20069;-87
2021/03/21 13:22:28;;;;;;;22.48;5.80;;;9.40;99.90;;;;;;5071086;28;20117;-87
2021/03/21 13:24:55;;;;;;;26.42;6.88;;;9.40;99.90;;;;;;5073125;28;20045;-87
2021/03/21 13:27:23;;;;;;;34.00;7.30;;;9.50;99.90;;;;;;5073781;28;20056;-87
2021/03/21 13:29:50;;;;;;;33.90;6.75;;;9.60;99.90;;;;;;5073956;28;20057;-87
2021/03/21 13:32:31;;;;;;;25.13;5.80;;;9.50;99.90;;;;;;5120249;27;20769;-75
2021/03/21 13:34:57;;;;;;;22.77;6.03;;;9.40;99.90;;;;;;5082753;28;20051;-76